sensor_id;sensor_type;location;lat;lon;timestamp;temperature;humidity
23186;DHT22;11761;51.324;4.590;2023-03-16T00:01:39;5.50;99.90
23186;DHT22;11761;51.324;4.590;2023-03-16T00:04:05;5.40;99.90
23186;DHT22;11761;51.324;4.590;2023-03-16T00:06:31;5.40;99.90
23186;DHT22;11761;51.324;4.590;2023-03-16T00:08:57;5.40;99.90
23186;DHT22;11761;51.324;4.590;2023-03-16T00:11:27;5.50;99.90
23186;DHT22;11761;51.324;4.590;2023-03-16T00:13:53;5.50;99.90
23186;DHT22;11761;51.324;4.590;2023-03-16T00:16:19;5.40;99.90
23186;DHT22;11761;51.324;4.590;2023-03-16T00:18:45;5.40;99.90
23186;DHT22;11761;51.324;4.590;2023-03-16T00:21:13;5.40;99.90
23186;DHT22;11761;51.324;4.590;2023-03-16T00:23:39;5.40;99.90
23186;DHT22;11761;51.324;4.590;2023-03-16T00:26:08;5.40;99.90
23186;DHT22;11761;51.324;4.590;2023-03-16T00:28:35;5.50;99.90
23186;DHT22;11761;51.324;4.590;2023-03-16T00:31:05;5.50;99.90
23186;DHT22;11761;51.324;4.590;2023-03-16T00:33:32;5.50;99.90
23186;DHT22;11761;51.324;4.590;2023-03-16T00:36:01;5.50;99.90
23186;DHT22;11761;51.324;4.590;2023-03-16T00:38:30;5.40;99.90
23186;DHT22;11761;51.324;4.590;2023-03-16T00:40:56;5.40;99.90
23186;DHT22;11761;51.324;4.590;2023-03-16T00:43:22;5.50;99.90
23186;DHT22;11761;51.324;4.590;2023-03-16T00:45:57;5.50;99.90
23186;DHT22;11761;51.324;4.590;2023-03-16T00:48:24;5.50;99.90
23186;DHT22;11761;51.324;4.590;2023-03-16T00:50:49;5.50;99.90
23186;DHT22;11761;51.324;4.590;2023-03-16T00:53:19;5.60;99.90
23186;DHT22;11761;51.324;4.590;2023-03-16T00:55:46;5.60;99.90
23186;DHT22;11761;51.324;4.590;2023-03-16T00:58:12;5.60;99.90
23186;DHT22;11761;51.324;4.590;2023-03-16T01:00:39;5.60;99.90
23186;DHT22;11761;51.324;4.590;2023-03-16T01:03:05;5.60;99.90
23186;DHT22;11761;51.324;4.590;2023-03-16T01:05:31;5.60;99.90
23186;DHT22;11761;51.324;4.590;2023-03-16T01:07:58;5.60;99.90
23186;DHT22;11761;51.324;4.590;2023-03-16T01:10:27;5.60;99.90
23186;DHT22;11761;51.324;4.590;2023-03-16T01:12:53;5.60;99.90
23186;DHT22;11761;51.324;4.590;2023-03-16T01:15:21;5.50;99.90
23186;DHT22;11761;51.324;4.590;2023-03-16T01:17:47;5.40;99.90
23186;DHT22;11761;51.324;4.590;2023-03-16T01:20:13;5.40;99.90
23186;DHT22;11761;51.324;4.590;2023-03-16T01:22:44;5.30;99.90
23186;DHT22;11761;51.324;4.590;2023-03-16T01:25:11;5.30;99.90
23186;DHT22;11761;51.324;4.590;2023-03-16T01:27:37;5.30;99.90
23186;DHT22;11761;51.324;4.590;2023-03-16T01:30:04;5.30;99.90
23186;DHT22;11761;51.324;4.590;2023-03-16T01:32:31;5.30;99.90
23186;DHT22;11761;51.324;4.590;2023-03-16T01:34:57;5.30;99.90
23186;DHT22;11761;51.324;4.590;2023-03-16T01:37:22;5.30;99.90
23186;DHT22;11761;51.324;4.590;2023-03-16T01:39:49;5.30;99.90
23186;DHT22;11761;51.324;4.590;2023-03-16T01:42:15;5.30;99.90
23186;DHT22;11761;51.324;4.590;2023-03-16T01:44:56;5.30;99.90
23186;DHT22;11761;51.324;4.590;2023-03-16T01:47:22;5.30;99.90
23186;DHT22;11761;51.324;4.590;2023-03-16T01:49:51;5.30;99.90
23186;DHT22;11761;51.324;4.590;2023-03-16T01:52:22;5.30;99.90
23186;DHT22;11761;51.324;4.590;2023-03-16T01:55:02;5.30;99.90
23186;DHT22;11761;51.324;4.590;2023-03-16T01:57:32;5.30;99.90
23186;DHT22;11761;51.324;4.590;2023-03-16T02:02:46;5.40;99.90
23186;DHT22;11761;51.324;4.590;2023-03-16T02:05:16;5.30;99.90
23186;DHT22;11761;51.324;4.590;2023-03-16T02:07:50;5.40;99.90
23186;DHT22;11761;51.324;4.590;2023-03-16T02:10:18;5.40;99.90
23186;DHT22;11761;51.324;4.590;2023-03-16T02:12:45;5.40;99.90
23186;DHT22;11761;51.324;4.590;2023-03-16T02:15:13;5.40;99.90
23186;DHT22;11761;51.324;4.590;2023-03-16T02:17:42;5.40;99.90
23186;DHT22;11761;51.324;4.590;2023-03-16T02:23:04;5.40;99.90
23186;DHT22;11761;51.324;4.590;2023-03-16T02:25:43;5.40;99.90
23186;DHT22;11761;51.324;4.590;2023-03-16T02:30:57;5.50;99.90
23186;DHT22;11761;51.324;4.590;2023-03-16T02:33:24;5.40;99.90
23186;DHT22;11761;51.324;4.590;2023-03-16T02:35:50;5.50;99.90
23186;DHT22;11761;51.324;4.590;2023-03-16T02:38:16;5.50;99.90
23186;DHT22;11761;51.324;4.590;2023-03-16T02:40:45;5.50;99.90
23186;DHT22;11761;51.324;4.590;2023-03-16T02:43:21;5.50;99.90
23186;DHT22;11761;51.324;4.590;2023-03-16T02:45:56;5.50;99.90
23186;DHT22;11761;51.324;4.590;2023-03-16T02:48:47;5.50;99.90
23186;DHT22;11761;51.324;4.590;2023-03-16T02:51:14;5.60;99.90
23186;DHT22;11761;51.324;4.590;2023-03-16T02:53:40;5.60;99.90
23186;DHT22;11761;51.324;4.590;2023-03-16T02:56:06;5.60;99.90
23186;DHT22;11761;51.324;4.590;2023-03-16T02:58:32;5.60;99.90
23186;DHT22;11761;51.324;4.590;2023-03-16T03:00:58;5.60;99.90
23186;DHT22;11761;51.324;4.590;2023-03-16T03:03:24;5.70;99.90
23186;DHT22;11761;51.324;4.590;2023-03-16T03:05:50;5.70;99.90
23186;DHT22;11761;51.324;4.590;2023-03-16T03:08:16;5.70;99.90
23186;DHT22;11761;51.324;4.590;2023-03-16T03:10:45;5.70;99.90
23186;DHT22;11761;51.324;4.590;2023-03-16T03:13:11;5.70;99.90
23186;DHT22;11761;51.324;4.590;2023-03-16T03:15:37;5.70;99.90
23186;DHT22;11761;51.324;4.590;2023-03-16T03:18:03;5.70;99.90
23186;DHT22;11761;51.324;4.590;2023-03-16T03:20:29;5.70;99.90
23186;DHT22;11761;51.324;4.590;2023-03-16T03:22:55;5.70;99.90
23186;DHT22;11761;51.324;4.590;2023-03-16T03:25:21;5.70;99.90
23186;DHT22;11761;51.324;4.590;2023-03-16T03:27:49;5.60;99.90
23186;DHT22;11761;51.324;4.590;2023-03-16T03:30:18;5.60;99.90
23186;DHT22;11761;51.324;4.590;2023-03-16T03:32:45;5.60;99.90
23186;DHT22;11761;51.324;4.590;2023-03-16T03:35:12;5.50;99.90
23186;DHT22;11761;51.324;4.590;2023-03-16T03:37:40;5.50;99.90
23186;DHT22;11761;51.324;4.590;2023-03-16T03:40:09;5.40;99.90
23186;DHT22;11761;51.324;4.590;2023-03-16T03:42:36;5.40;99.90
23186;DHT22;11761;51.324;4.590;2023-03-16T03:45:02;5.40;99.90
23186;DHT22;11761;51.324;4.590;2023-03-16T03:47:29;5.40;99.90
23186;DHT22;11761;51.324;4.590;2023-03-16T03:49:55;5.30;99.90
23186;DHT22;11761;51.324;4.590;2023-03-16T03:52:21;5.30;99.90
23186;DHT22;11761;51.324;4.590;2023-03-16T03:54:47;5.30;99.90
23186;DHT22;11761;51.324;4.590;2023-03-16T03:57:13;5.30;99.90
23186;DHT22;11761;51.324;4.590;2023-03-16T03:59:38;5.30;99.90
23186;DHT22;11761;51.324;4.590;2023-03-16T04:02:09;5.30;99.90
23186;DHT22;11761;51.324;4.590;2023-03-16T04:04:35;5.40;99.90
23186;DHT22;11761;51.324;4.590;2023-03-16T04:07:01;5.30;99.90
23186;DHT22;11761;51.324;4.590;2023-03-16T04:09:28;5.30;99.90
23186;DHT22;11761;51.324;4.590;2023-03-16T04:11:54;5.20;99.90
23186;DHT22;11761;51.324;4.590;2023-03-16T04:14:22;5.20;99.90
23186;DHT22;11761;51.324;4.590;2023-03-16T04:16:48;5.20;99.90
23186;DHT22;11761;51.324;4.590;2023-03-16T04:19:14;5.10;99.90
23186;DHT22;11761;51.324;4.590;2023-03-16T04:21:40;5.10;99.90
23186;DHT22;11761;51.324;4.590;2023-03-16T04:24:06;5.10;99.90
23186;DHT22;11761;51.324;4.590;2023-03-16T04:26:32;5.10;99.90
23186;DHT22;11761;51.324;4.590;2023-03-16T04:28:58;5.10;99.90
23186;DHT22;11761;51.324;4.590;2023-03-16T04:31:25;5.10;99.90
23186;DHT22;11761;51.324;4.590;2023-03-16T04:33:51;5.10;99.90
23186;DHT22;11761;51.324;4.590;2023-03-16T04:36:19;5.20;99.90
23186;DHT22;11761;51.324;4.590;2023-03-16T04:38:49;5.20;99.90
23186;DHT22;11761;51.324;4.590;2023-03-16T04:41:16;5.20;99.90
23186;DHT22;11761;51.324;4.590;2023-03-16T04:43:43;5.20;99.90
23186;DHT22;11761;51.324;4.590;2023-03-16T04:46:09;5.20;99.90
23186;DHT22;11761;51.324;4.590;2023-03-16T04:48:36;5.20;99.90
23186;DHT22;11761;51.324;4.590;2023-03-16T04:51:03;5.20;99.90
23186;DHT22;11761;51.324;4.590;2023-03-16T04:53:29;5.20;99.90
23186;DHT22;11761;51.324;4.590;2023-03-16T04:55:57;5.20;99.90
23186;DHT22;11761;51.324;4.590;2023-03-16T04:58:23;5.20;99.90
23186;DHT22;11761;51.324;4.590;2023-03-16T05:00:53;5.20;99.90
23186;DHT22;11761;51.324;4.590;2023-03-16T05:03:20;5.20;99.90
23186;DHT22;11761;51.324;4.590;2023-03-16T05:05:47;5.20;99.90
23186;DHT22;11761;51.324;4.590;2023-03-16T05:08:14;5.10;99.90
23186;DHT22;11761;51.324;4.590;2023-03-16T05:10:41;5.10;99.90
23186;DHT22;11761;51.324;4.590;2023-03-16T05:13:07;5.10;99.90
23186;DHT22;11761;51.324;4.590;2023-03-16T05:15:33;5.10;99.90
23186;DHT22;11761;51.324;4.590;2023-03-16T05:17:59;5.10;99.90
23186;DHT22;11761;51.324;4.590;2023-03-16T05:20:26;5.10;99.90
23186;DHT22;11761;51.324;4.590;2023-03-16T05:22:52;5.10;99.90
23186;DHT22;11761;51.324;4.590;2023-03-16T05:25:19;5.10;99.90
23186;DHT22;11761;51.324;4.590;2023-03-16T05:27:50;5.10;99.90
23186;DHT22;11761;51.324;4.590;2023-03-16T05:30:17;5.10;99.90
23186;DHT22;11761;51.324;4.590;2023-03-16T05:32:43;5.10;99.90
23186;DHT22;11761;51.324;4.590;2023-03-16T05:35:10;5.10;99.90
23186;DHT22;11761;51.324;4.590;2023-03-16T05:37:39;5.10;99.90
23186;DHT22;11761;51.324;4.590;2023-03-16T05:40:07;5.10;99.90
23186;DHT22;11761;51.324;4.590;2023-03-16T05:42:46;5.10;99.90
23186;DHT22;11761;51.324;4.590;2023-03-16T05:45:13;5.10;99.90
23186;DHT22;11761;51.324;4.590;2023-03-16T05:47:40;5.10;99.90
23186;DHT22;11761;51.324;4.590;2023-03-16T05:50:07;5.00;99.90
23186;DHT22;11761;51.324;4.590;2023-03-16T05:52:39;5.00;99.90
23186;DHT22;11761;51.324;4.590;2023-03-16T05:55:07;5.00;99.90
23186;DHT22;11761;51.324;4.590;2023-03-16T05:57:34;5.00;99.90
23186;DHT22;11761;51.324;4.590;2023-03-16T06:00:02;5.00;99.90
23186;DHT22;11761;51.324;4.590;2023-03-16T06:02:37;5.00;99.90
23186;DHT22;11761;51.324;4.590;2023-03-16T06:05:04;5.10;99.90
23186;DHT22;11761;51.324;4.590;2023-03-16T06:07:30;5.10;99.90
23186;DHT22;11761;51.324;4.590;2023-03-16T06:09:56;5.10;99.90
23186;DHT22;11761;51.324;4.590;2023-03-16T06:12:22;5.10;99.90
23186;DHT22;11761;51.324;4.590;2023-03-16T06:14:48;5.10;99.90
23186;DHT22;11761;51.324;4.590;2023-03-16T06:17:14;5.20;99.90
23186;DHT22;11761;51.324;4.590;2023-03-16T06:19:40;5.20;99.90
23186;DHT22;11761;51.324;4.590;2023-03-16T06:22:06;5.20;99.90
23186;DHT22;11761;51.324;4.590;2023-03-16T06:24:33;5.20;99.90
23186;DHT22;11761;51.324;4.590;2023-03-16T06:26:59;5.30;99.90
23186;DHT22;11761;51.324;4.590;2023-03-16T06:29:25;5.30;99.90
23186;DHT22;11761;51.324;4.590;2023-03-16T06:31:51;5.30;99.90
23186;DHT22;11761;51.324;4.590;2023-03-16T06:34:18;5.30;99.90
23186;DHT22;11761;51.324;4.590;2023-03-16T06:36:43;5.40;99.90
23186;DHT22;11761;51.324;4.590;2023-03-16T06:39:09;5.40;99.90
23186;DHT22;11761;51.324;4.590;2023-03-16T06:41:35;5.40;99.90
23186;DHT22;11761;51.324;4.590;2023-03-16T06:44:02;5.50;99.90
23186;DHT22;11761;51.324;4.590;2023-03-16T06:46:30;5.50;99.90
23186;DHT22;11761;51.324;4.590;2023-03-16T06:48:57;5.50;99.90
23186;DHT22;11761;51.324;4.590;2023-03-16T06:51:26;5.60;99.90
23186;DHT22;11761;51.324;4.590;2023-03-16T06:53:52;5.60;99.90
23186;DHT22;11761;51.324;4.590;2023-03-16T06:56:18;5.60;99.90
23186;DHT22;11761;51.324;4.590;2023-03-16T06:58:43;5.70;99.90
23186;DHT22;11761;51.324;4.590;2023-03-16T07:01:10;5.80;99.90
23186;DHT22;11761;51.324;4.590;2023-03-16T07:03:37;5.80;99.90
23186;DHT22;11761;51.324;4.590;2023-03-16T07:06:03;5.90;99.90
23186;DHT22;11761;51.324;4.590;2023-03-16T07:08:30;5.90;99.90
23186;DHT22;11761;51.324;4.590;2023-03-16T07:10:56;5.90;99.90
23186;DHT22;11761;51.324;4.590;2023-03-16T07:13:22;5.90;99.90
23186;DHT22;11761;51.324;4.590;2023-03-16T07:15:51;6.00;99.90
23186;DHT22;11761;51.324;4.590;2023-03-16T07:18:18;6.10;99.90
23186;DHT22;11761;51.324;4.590;2023-03-16T07:20:44;6.10;99.90
23186;DHT22;11761;51.324;4.590;2023-03-16T07:23:10;6.10;99.90
23186;DHT22;11761;51.324;4.590;2023-03-16T07:25:37;6.10;99.90
23186;DHT22;11761;51.324;4.590;2023-03-16T07:28:04;6.20;99.90
23186;DHT22;11761;51.324;4.590;2023-03-16T07:30:30;6.20;99.90
23186;DHT22;11761;51.324;4.590;2023-03-16T07:32:56;6.30;99.90
23186;DHT22;11761;51.324;4.590;2023-03-16T07:35:22;6.40;99.90
23186;DHT22;11761;51.324;4.590;2023-03-16T07:37:48;6.50;99.90
23186;DHT22;11761;51.324;4.590;2023-03-16T07:40:16;6.50;99.90
23186;DHT22;11761;51.324;4.590;2023-03-16T07:42:42;6.60;99.90
23186;DHT22;11761;51.324;4.590;2023-03-16T07:45:09;6.60;99.90
23186;DHT22;11761;51.324;4.590;2023-03-16T07:47:35;6.60;99.90
23186;DHT22;11761;51.324;4.590;2023-03-16T07:50:01;6.50;99.90
23186;DHT22;11761;51.324;4.590;2023-03-16T07:52:28;6.60;99.90
23186;DHT22;11761;51.324;4.590;2023-03-16T07:54:54;6.60;99.90
23186;DHT22;11761;51.324;4.590;2023-03-16T07:57:20;6.80;99.90
23186;DHT22;11761;51.324;4.590;2023-03-16T07:59:47;6.90;99.90
23186;DHT22;11761;51.324;4.590;2023-03-16T08:02:15;6.90;99.90
23186;DHT22;11761;51.324;4.590;2023-03-16T08:04:42;7.00;99.90
23186;DHT22;11761;51.324;4.590;2023-03-16T08:07:10;7.10;99.90
23186;DHT22;11761;51.324;4.590;2023-03-16T08:09:37;7.20;99.90
23186;DHT22;11761;51.324;4.590;2023-03-16T08:12:05;7.40;99.90
23186;DHT22;11761;51.324;4.590;2023-03-16T08:14:32;7.60;99.90
23186;DHT22;11761;51.324;4.590;2023-03-16T08:17:02;7.80;99.90
23186;DHT22;11761;51.324;4.590;2023-03-16T08:19:28;8.60;99.90
23186;DHT22;11761;51.324;4.590;2023-03-16T08:21:55;9.60;99.90
23186;DHT22;11761;51.324;4.590;2023-03-16T08:24:23;9.90;99.90
23186;DHT22;11761;51.324;4.590;2023-03-16T08:26:49;9.90;99.90
23186;DHT22;11761;51.324;4.590;2023-03-16T08:29:15;9.50;99.90
23186;DHT22;11761;51.324;4.590;2023-03-16T08:31:41;9.20;99.90
23186;DHT22;11761;51.324;4.590;2023-03-16T08:34:07;9.10;99.90
23186;DHT22;11761;51.324;4.590;2023-03-16T08:36:34;9.30;99.90
23186;DHT22;11761;51.324;4.590;2023-03-16T08:39:02;10.00;99.90
23186;DHT22;11761;51.324;4.590;2023-03-16T08:41:31;9.50;99.90
23186;DHT22;11761;51.324;4.590;2023-03-16T08:43:58;9.40;99.90
23186;DHT22;11761;51.324;4.590;2023-03-16T08:46:25;9.30;99.90
23186;DHT22;11761;51.324;4.590;2023-03-16T08:48:51;9.30;99.90
23186;DHT22;11761;51.324;4.590;2023-03-16T08:51:17;10.90;99.90
23186;DHT22;11761;51.324;4.590;2023-03-16T08:53:44;13.00;99.90
23186;DHT22;11761;51.324;4.590;2023-03-16T08:56:12;14.00;99.90
23186;DHT22;11761;51.324;4.590;2023-03-16T08:58:40;13.70;99.90
23186;DHT22;11761;51.324;4.590;2023-03-16T09:01:11;13.60;99.90
23186;DHT22;11761;51.324;4.590;2023-03-16T09:03:38;12.10;99.90
23186;DHT22;11761;51.324;4.590;2023-03-16T09:06:07;11.40;99.90
23186;DHT22;11761;51.324;4.590;2023-03-16T09:08:36;13.20;99.90
23186;DHT22;11761;51.324;4.590;2023-03-16T09:11:09;14.30;99.90
23186;DHT22;11761;51.324;4.590;2023-03-16T09:13:36;12.40;99.90
23186;DHT22;11761;51.324;4.590;2023-03-16T09:16:04;12.20;99.90
23186;DHT22;11761;51.324;4.590;2023-03-16T09:18:31;11.80;99.90
23186;DHT22;11761;51.324;4.590;2023-03-16T09:20:59;11.60;99.90
23186;DHT22;11761;51.324;4.590;2023-03-16T09:23:26;11.30;99.90
23186;DHT22;11761;51.324;4.590;2023-03-16T09:25:56;11.40;99.90
23186;DHT22;11761;51.324;4.590;2023-03-16T09:28:22;10.90;99.90
23186;DHT22;11761;51.324;4.590;2023-03-16T09:30:50;11.00;99.90
23186;DHT22;11761;51.324;4.590;2023-03-16T09:33:15;11.40;99.90
23186;DHT22;11761;51.324;4.590;2023-03-16T09:35:43;11.40;99.90
23186;DHT22;11761;51.324;4.590;2023-03-16T09:38:09;11.20;99.90
23186;DHT22;11761;51.324;4.590;2023-03-16T09:40:36;11.00;99.90
23186;DHT22;11761;51.324;4.590;2023-03-16T09:45:36;10.80;99.90
23186;DHT22;11761;51.324;4.590;2023-03-16T09:48:08;10.70;99.90
23186;DHT22;11761;51.324;4.590;2023-03-16T09:50:38;10.60;99.90
23186;DHT22;11761;51.324;4.590;2023-03-16T09:53:07;10.60;99.90
23186;DHT22;11761;51.324;4.590;2023-03-16T09:55:42;10.60;99.90
23186;DHT22;11761;51.324;4.590;2023-03-16T09:58:16;10.80;99.90
23186;DHT22;11761;51.324;4.590;2023-03-16T10:03:46;11.40;99.90
23186;DHT22;11761;51.324;4.590;2023-03-16T10:06:17;11.70;99.90
23186;DHT22;11761;51.324;4.590;2023-03-16T10:11:44;12.20;99.90
23186;DHT22;11761;51.324;4.590;2023-03-16T10:14:39;11.90;99.90
23186;DHT22;11761;51.324;4.590;2023-03-16T10:17:16;12.40;99.90
23186;DHT22;11761;51.324;4.590;2023-03-16T10:19:58;13.00;99.90
23186;DHT22;11761;51.324;4.590;2023-03-16T10:22:32;13.10;99.90
23186;DHT22;11761;51.324;4.590;2023-03-16T10:25:22;13.40;99.90
23186;DHT22;11761;51.324;4.590;2023-03-16T10:27:50;13.20;99.90
23186;DHT22;11761;51.324;4.590;2023-03-16T10:32:49;13.10;99.90
23186;DHT22;11761;51.324;4.590;2023-03-16T10:35:48;13.20;99.90
23186;DHT22;11761;51.324;4.590;2023-03-16T10:38:49;13.40;99.90
23186;DHT22;11761;51.324;4.590;2023-03-16T10:43:48;13.40;99.90
23186;DHT22;11761;51.324;4.590;2023-03-16T10:46:14;13.50;99.90
23186;DHT22;11761;51.324;4.590;2023-03-16T10:48:41;13.40;99.90
23186;DHT22;11761;51.324;4.590;2023-03-16T10:51:13;13.40;99.90
23186;DHT22;11761;51.324;4.590;2023-03-16T10:53:42;13.20;99.90
23186;DHT22;11761;51.324;4.590;2023-03-16T10:56:11;13.60;99.90
23186;DHT22;11761;51.324;4.590;2023-03-16T10:58:41;13.60;99.90
23186;DHT22;11761;51.324;4.590;2023-03-16T11:01:16;13.40;99.90
23186;DHT22;11761;51.324;4.590;2023-03-16T11:03:48;13.10;99.90
23186;DHT22;11761;51.324;4.590;2023-03-16T11:06:33;13.10;99.90
23186;DHT22;11761;51.324;4.590;2023-03-16T11:09:17;13.20;99.90
23186;DHT22;11761;51.324;4.590;2023-03-16T11:11:48;13.30;99.90
23186;DHT22;11761;51.324;4.590;2023-03-16T11:14:17;13.50;99.90
23186;DHT22;11761;51.324;4.590;2023-03-16T11:17:02;13.60;99.90
23186;DHT22;11761;51.324;4.590;2023-03-16T11:19:34;13.70;99.90
23186;DHT22;11761;51.324;4.590;2023-03-16T11:22:24;13.40;99.90
23186;DHT22;11761;51.324;4.590;2023-03-16T11:30:18;13.90;99.90
23186;DHT22;11761;51.324;4.590;2023-03-16T11:32:52;14.10;99.90
23186;DHT22;11761;51.324;4.590;2023-03-16T11:35:22;14.50;99.90
23186;DHT22;11761;51.324;4.590;2023-03-16T11:41:04;14.70;99.90
23186;DHT22;11761;51.324;4.590;2023-03-16T11:54:39;15.20;99.90
23186;DHT22;11761;51.324;4.590;2023-03-16T11:57:33;15.00;99.90
23186;DHT22;11761;51.324;4.590;2023-03-16T12:13:56;15.50;99.90
23186;DHT22;11761;51.324;4.590;2023-03-16T12:16:32;15.30;99.90
23186;DHT22;11761;51.324;4.590;2023-03-16T12:22:27;15.40;99.90
23186;DHT22;11761;51.324;4.590;2023-03-16T12:24:54;15.80;99.90
23186;DHT22;11761;51.324;4.590;2023-03-16T12:27:35;15.90;99.90
23186;DHT22;11761;51.324;4.590;2023-03-16T12:33:17;16.70;99.90
23186;DHT22;11761;51.324;4.590;2023-03-16T12:36:06;16.80;99.90
23186;DHT22;11761;51.324;4.590;2023-03-16T12:44:43;16.40;99.90
23186;DHT22;11761;51.324;4.590;2023-03-16T12:49:50;16.10;99.90
23186;DHT22;11761;51.324;4.590;2023-03-16T12:52:17;16.10;99.90
23186;DHT22;11761;51.324;4.590;2023-03-16T12:54:51;17.10;99.90
23186;DHT22;11761;51.324;4.590;2023-03-16T12:57:18;17.30;99.90
23186;DHT22;11761;51.324;4.590;2023-03-16T12:59:46;16.60;99.90
23186;DHT22;11761;51.324;4.590;2023-03-16T13:02:23;16.60;99.90
23186;DHT22;11761;51.324;4.590;2023-03-16T13:05:00;17.00;99.90
23186;DHT22;11761;51.324;4.590;2023-03-16T13:07:28;17.40;99.90
23186;DHT22;11761;51.324;4.590;2023-03-16T13:10:11;17.50;99.90
23186;DHT22;11761;51.324;4.590;2023-03-16T13:12:38;17.20;99.90
23186;DHT22;11761;51.324;4.590;2023-03-16T13:15:27;17.00;99.90
23186;DHT22;11761;51.324;4.590;2023-03-16T13:18:04;16.90;99.20
23186;DHT22;11761;51.324;4.590;2023-03-16T13:20:33;17.10;99.90
23186;DHT22;11761;51.324;4.590;2023-03-16T13:23:08;16.70;99.90
23186;DHT22;11761;51.324;4.590;2023-03-16T13:25:57;16.60;99.90
23186;DHT22;11761;51.324;4.590;2023-03-16T13:28:28;16.10;99.00
23186;DHT22;11761;51.324;4.590;2023-03-16T13:30:54;16.30;99.80
23186;DHT22;11761;51.324;4.590;2023-03-16T13:33:23;16.50;99.40
23186;DHT22;11761;51.324;4.590;2023-03-16T13:35:52;16.40;99.90
23186;DHT22;11761;51.324;4.590;2023-03-16T13:38:21;16.50;99.00
23186;DHT22;11761;51.324;4.590;2023-03-16T13:40:49;16.60;99.90
23186;DHT22;11761;51.324;4.590;2023-03-16T13:43:23;16.60;99.50
23186;DHT22;11761;51.324;4.590;2023-03-16T13:45:49;17.20;99.10
23186;DHT22;11761;51.324;4.590;2023-03-16T13:48:16;17.10;98.60
23186;DHT22;11761;51.324;4.590;2023-03-16T13:50:43;17.10;99.90
23186;DHT22;11761;51.324;4.590;2023-03-16T13:53:21;17.10;99.00
23186;DHT22;11761;51.324;4.590;2023-03-16T13:55:51;17.10;97.40
23186;DHT22;11761;51.324;4.590;2023-03-16T13:58:23;16.80;96.80
23186;DHT22;11761;51.324;4.590;2023-03-16T14:00:55;16.50;98.60
23186;DHT22;11761;51.324;4.590;2023-03-16T14:03:22;16.40;97.10
23186;DHT22;11761;51.324;4.590;2023-03-16T14:05:49;16.50;98.30
23186;DHT22;11761;51.324;4.590;2023-03-16T14:08:20;16.30;96.30
23186;DHT22;11761;51.324;4.590;2023-03-16T14:10:49;16.00;97.90
23186;DHT22;11761;51.324;4.590;2023-03-16T14:13:31;16.20;98.20
23186;DHT22;11761;51.324;4.590;2023-03-16T14:15:59;16.00;97.30
23186;DHT22;11761;51.324;4.590;2023-03-16T14:18:34;15.60;97.60
23186;DHT22;11761;51.324;4.590;2023-03-16T14:21:08;15.70;97.40
23186;DHT22;11761;51.324;4.590;2023-03-16T14:23:40;15.70;97.60
23186;DHT22;11761;51.324;4.590;2023-03-16T14:26:12;15.50;98.80
23186;DHT22;11761;51.324;4.590;2023-03-16T14:28:38;15.40;97.60
23186;DHT22;11761;51.324;4.590;2023-03-16T14:31:09;15.30;98.00
23186;DHT22;11761;51.324;4.590;2023-03-16T14:33:41;15.20;98.90
23186;DHT22;11761;51.324;4.590;2023-03-16T14:36:16;15.10;98.50
23186;DHT22;11761;51.324;4.590;2023-03-16T14:38:44;15.20;97.30
23186;DHT22;11761;51.324;4.590;2023-03-16T14:41:24;15.20;98.10
23186;DHT22;11761;51.324;4.590;2023-03-16T14:43:55;15.10;98.00
23186;DHT22;11761;51.324;4.590;2023-03-16T14:46:30;15.00;96.40
23186;DHT22;11761;51.324;4.590;2023-03-16T14:49:18;15.00;97.00
23186;DHT22;11761;51.324;4.590;2023-03-16T14:51:47;15.20;96.80
23186;DHT22;11761;51.324;4.590;2023-03-16T14:54:15;15.10;95.50
23186;DHT22;11761;51.324;4.590;2023-03-16T14:56:50;15.10;96.60
23186;DHT22;11761;51.324;4.590;2023-03-16T14:59:16;15.00;97.20
23186;DHT22;11761;51.324;4.590;2023-03-16T15:01:43;14.80;96.40
23186;DHT22;11761;51.324;4.590;2023-03-16T15:04:15;14.70;96.80
23186;DHT22;11761;51.324;4.590;2023-03-16T15:06:44;14.60;96.80
23186;DHT22;11761;51.324;4.590;2023-03-16T15:11:55;14.60;97.30
23186;DHT22;11761;51.324;4.590;2023-03-16T15:14:22;14.60;97.70
23186;DHT22;11761;51.324;4.590;2023-03-16T15:17:07;14.80;98.60
23186;DHT22;11761;51.324;4.590;2023-03-16T15:19:34;14.80;97.20
23186;DHT22;11761;51.324;4.590;2023-03-16T15:22:02;14.80;96.70
23186;DHT22;11761;51.324;4.590;2023-03-16T15:24:29;14.90;98.00
23186;DHT22;11761;51.324;4.590;2023-03-16T15:26:58;15.10;96.30
23186;DHT22;11761;51.324;4.590;2023-03-16T15:29:24;15.20;97.80
23186;DHT22;11761;51.324;4.590;2023-03-16T15:31:50;15.20;97.50
23186;DHT22;11761;51.324;4.590;2023-03-16T15:34:16;15.00;97.10
23186;DHT22;11761;51.324;4.590;2023-03-16T15:36:42;15.00;97.30
23186;DHT22;11761;51.324;4.590;2023-03-16T15:39:19;15.00;97.50
23186;DHT22;11761;51.324;4.590;2023-03-16T15:41:45;15.00;97.60
23186;DHT22;11761;51.324;4.590;2023-03-16T15:44:12;15.00;96.20
23186;DHT22;11761;51.324;4.590;2023-03-16T15:46:37;15.00;96.50
23186;DHT22;11761;51.324;4.590;2023-03-16T15:49:04;15.00;96.20
23186;DHT22;11761;51.324;4.590;2023-03-16T15:51:30;15.00;97.10
23186;DHT22;11761;51.324;4.590;2023-03-16T15:53:59;14.80;95.90
23186;DHT22;11761;51.324;4.590;2023-03-16T15:56:29;14.80;96.00
23186;DHT22;11761;51.324;4.590;2023-03-16T15:58:58;14.70;96.60
23186;DHT22;11761;51.324;4.590;2023-03-16T16:01:27;14.70;96.10
23186;DHT22;11761;51.324;4.590;2023-03-16T16:03:59;14.70;97.90
23186;DHT22;11761;51.324;4.590;2023-03-16T16:06:26;14.70;97.20
23186;DHT22;11761;51.324;4.590;2023-03-16T16:08:53;14.70;97.60
23186;DHT22;11761;51.324;4.590;2023-03-16T16:11:27;14.70;97.10
23186;DHT22;11761;51.324;4.590;2023-03-16T16:13:57;14.70;96.00
23186;DHT22;11761;51.324;4.590;2023-03-16T16:16:25;14.90;96.00
23186;DHT22;11761;51.324;4.590;2023-03-16T16:18:52;15.00;96.20
23186;DHT22;11761;51.324;4.590;2023-03-16T16:21:20;15.00;96.60
23186;DHT22;11761;51.324;4.590;2023-03-16T16:23:47;14.90;96.80
23186;DHT22;11761;51.324;4.590;2023-03-16T16:26:16;14.70;96.90
23186;DHT22;11761;51.324;4.590;2023-03-16T16:28:45;14.50;96.70
23186;DHT22;11761;51.324;4.590;2023-03-16T16:31:12;14.30;96.80
23186;DHT22;11761;51.324;4.590;2023-03-16T16:33:39;14.20;96.90
23186;DHT22;11761;51.324;4.590;2023-03-16T16:36:11;14.00;97.50
23186;DHT22;11761;51.324;4.590;2023-03-16T16:38:37;14.00;97.40
23186;DHT22;11761;51.324;4.590;2023-03-16T16:41:07;13.90;97.50
23186;DHT22;11761;51.324;4.590;2023-03-16T16:43:41;13.80;97.80
23186;DHT22;11761;51.324;4.590;2023-03-16T16:46:17;13.60;99.60
23186;DHT22;11761;51.324;4.590;2023-03-16T16:48:48;13.60;99.10
23186;DHT22;11761;51.324;4.590;2023-03-16T16:51:23;13.50;98.80
23186;DHT22;11761;51.324;4.590;2023-03-16T16:53:54;13.40;99.60
23186;DHT22;11761;51.324;4.590;2023-03-16T16:56:32;13.30;99.80
23186;DHT22;11761;51.324;4.590;2023-03-16T16:59:32;13.20;99.20
23186;DHT22;11761;51.324;4.590;2023-03-16T17:01:59;13.10;99.90
23186;DHT22;11761;51.324;4.590;2023-03-16T17:04:28;13.00;99.90
23186;DHT22;11761;51.324;4.590;2023-03-16T17:06:59;13.00;99.70